Time;durP1;ratioP1;P1;durP2;ratioP2;P2;SDS_P1;SDS_P2;PMS_P1;PMS_P2;Temp;Humidity;BMP_temperature;BMP_pressure;BME280_temperature;BME280_humidity;BME280_pressure;Samples;Min_cycle;Max_cycle;Signal;HPM_P1;HPM_P2
2021/03/04 00:02:10;;;;;;;84.20;40.60;;;;;;;;;;5071371;28;20452;-50
2021/03/04 00:04:36;;;;;;;69.97;40.83;;;;;;;;;;5071439;28;20452;-50
2021/03/04 00:07:01;;;;;;;80.83;41.37;;;;;;;;;;5070851;28;20401;-50
2021/03/04 00:09:28;;;;;;;77.33;40.67;;;;;;;;;;5071527;28;20405;-50
2021/03/04 00:11:54;;;;;;;74.17;40.70;;;;;;;;;;5071340;28;20415;-50
2021/03/04 00:14:20;;;;;;;75.43;41.67;;;;;;;;;;5070943;28;20902;-50
2021/03/04 00:16:46;;;;;;;87.90;43.03;;;;;;;;;;5071091;28;20450;-50
2021/03/04 00:19:12;;;;;;;77.50;41.63;;;;;;;;;;5071046;28;20404;-51
2021/03/04 00:21:38;;;;;;;75.50;42.77;;;;;;;;;;5071286;28;20538;-50
2021/03/04 00:24:04;;;;;;;79.47;43.13;;;;;;;;;;5071070;28;20827;-51
2021/03/04 00:26:30;;;;;;;74.33;43.53;;;;;;;;;;5070860;28;20400;-50
2021/03/04 00:28:56;;;;;;;84.33;48.47;;;;;;;;;;5070469;28;20404;-50
2021/03/04 00:31:22;;;;;;;86.53;49.27;;;;;;;;;;5071159;28;20594;-50
2021/03/04 00:33:48;;;;;;;82.53;48.67;;;;;;;;;;5070719;28;20444;-51
2021/03/04 00:36:14;;;;;;;99.83;53.23;;;;;;;;;;5071046;28;20403;-50
2021/03/04 00:38:40;;;;;;;99.60;51.90;;;;;;;;;;5070499;28;20956;-50
2021/03/04 00:41:06;;;;;;;84.27;49.87;;;;;;;;;;5085769;28;20427;-50
2021/03/04 00:43:32;;;;;;;84.30;48.30;;;;;;;;;;5090904;28;20457;-50
2021/03/04 00:45:58;;;;;;;90.60;46.23;;;;;;;;;;5091146;28;20931;-50
2021/03/04 00:48:24;;;;;;;99.03;48.43;;;;;;;;;;5090770;28;20391;-50
2021/03/04 00:50:50;;;;;;;88.20;47.87;;;;;;;;;;5091097;28;20455;-50
2021/03/04 00:53:16;;;;;;;86.27;46.23;;;;;;;;;;5091039;28;20418;-51
2021/03/04 00:55:42;;;;;;;84.43;46.13;;;;;;;;;;5090820;28;20396;-50
2021/03/04 00:58:08;;;;;;;82.57;47.97;;;;;;;;;;5090761;28;20400;-50
2021/03/04 01:00:34;;;;;;;85.77;47.00;;;;;;;;;;5090786;28;20398;-50
2021/03/04 01:03:00;;;;;;;82.50;45.83;;;;;;;;;;5090851;28;20524;-51
2021/03/04 01:05:26;;;;;;;84.87;45.77;;;;;;;;;;5090795;28;20748;-50
2021/03/04 01:07:52;;;;;;;92.80;46.83;;;;;;;;;;5089129;28;20438;-50
2021/03/04 01:10:24;;;;;;;87.27;46.30;;;;;;;;;;5070770;28;20831;-50
2021/03/04 01:12:50;;;;;;;89.37;49.10;;;;;;;;;;5070660;28;20411;-50
2021/03/04 01:15:17;;;;;;;86.23;48.60;;;;;;;;;;5070824;28;20500;-50
2021/03/04 01:17:43;;;;;;;85.47;47.27;;;;;;;;;;5070491;28;20407;-50
2021/03/04 01:20:10;;;;;;;86.47;45.93;;;;;;;;;;5070645;28;20426;-51
2021/03/04 01:22:37;;;;;;;84.83;46.83;;;;;;;;;;5070578;28;20464;-50
2021/03/04 01:25:04;;;;;;;83.80;44.03;;;;;;;;;;5070611;28;20457;-50
2021/03/04 01:27:30;;;;;;;69.03;40.57;;;;;;;;;;5070207;28;20819;-50
2021/03/04 01:29:56;;;;;;;78.83;39.70;;;;;;;;;;5070474;28;20510;-50
2021/03/04 01:32:22;;;;;;;76.33;38.93;;;;;;;;;;5069798;28;21466;-50
2021/03/04 01:34:48;;;;;;;73.63;40.40;;;;;;;;;;5070276;28;20439;-50
2021/03/04 01:37:14;;;;;;;70.67;39.23;;;;;;;;;;5070059;28;20832;-50
2021/03/04 01:39:40;;;;;;;70.73;39.57;;;;;;;;;;5070589;28;20430;-50
2021/03/04 01:42:06;;;;;;;75.10;39.43;;;;;;;;;;5070035;28;20459;-50
2021/03/04 01:44:32;;;;;;;78.63;46.83;;;;;;;;;;5070035;28;20485;-50
2021/03/04 01:46:59;;;;;;;88.67;48.27;;;;;;;;;;5069931;28;20406;-50
2021/03/04 01:49:25;;;;;;;92.70;50.10;;;;;;;;;;5070324;28;20402;-50
2021/03/04 01:51:51;;;;;;;76.17;42.90;;;;;;;;;;5070153;28;20892;-50
2021/03/04 01:54:18;;;;;;;86.53;45.37;;;;;;;;;;5069975;28;20436;-50
2021/03/04 01:56:45;;;;;;;83.87;41.77;;;;;;;;;;5070050;28;20438;-50
2021/03/04 01:59:12;;;;;;;80.00;42.33;;;;;;;;;;5069818;28;20839;-50
2021/03/04 02:01:38;;;;;;;92.57;44.50;;;;;;;;;;5069496;28;20512;-50
2021/03/04 02:04:04;;;;;;;90.07;46.40;;;;;;;;;;5069400;28;20426;-50
2021/03/04 02:06:36;;;;;;;88.87;44.00;;;;;;;;;;5069561;28;20433;-50
2021/03/04 02:09:03;;;;;;;85.53;45.93;;;;;;;;;;5069098;28;21086;-50
2021/03/04 02:11:32;;;;;;;92.63;49.70;;;;;;;;;;5070691;28;20423;-50
2021/03/04 02:14:10;;;;;;;92.13;48.23;;;;;;;;;;5069641;28;20424;-50
2021/03/04 02:16:38;;;;;;;86.87;47.47;;;;;;;;;;5069655;28;20438;-50
2021/03/04 02:19:08;;;;;;;88.50;49.97;;;;;;;;;;5071091;28;20492;-50
2021/03/04 02:21:43;;;;;;;92.97;44.10;;;;;;;;;;5073620;28;20465;-50
2021/03/04 02:24:15;;;;;;;83.43;43.50;;;;;;;;;;5073341;28;20509;-51
2021/03/04 02:26:44;;;;;;;77.60;40.87;;;;;;;;;;5073332;28;20413;-50
2021/03/04 02:29:11;;;;;;;81.07;41.63;;;;;;;;;;5073238;28;20672;-50
2021/03/04 02:31:40;;;;;;;72.73;43.30;;;;;;;;;;5073370;28;20409;-50
2021/03/04 02:34:09;;;;;;;70.70;38.67;;;;;;;;;;5073227;28;20545;-51
2021/03/04 02:36:35;;;;;;;68.17;41.57;;;;;;;;;;5073092;28;20897;-50
2021/03/04 02:39:04;;;;;;;81.87;42.00;;;;;;;;;;5073022;28;20892;-50
2021/03/04 02:41:32;;;;;;;79.10;42.57;;;;;;;;;;5073354;28;20499;-50
2021/03/04 02:44:00;;;;;;;85.60;45.55;;;;;;;;;;5073114;28;20416;-50
2021/03/04 02:46:26;;;;;;;89.53;49.30;;;;;;;;;;5072981;28;20195;-50
2021/03/04 02:48:52;;;;;;;106.83;49.20;;;;;;;;;;5072932;28;20438;-50
2021/03/04 02:51:18;;;;;;;87.17;50.33;;;;;;;;;;5072885;28;20399;-50
2021/03/04 02:53:44;;;;;;;91.37;50.97;;;;;;;;;;5073013;28;20422;-50
2021/03/04 02:56:11;;;;;;;88.47;47.90;;;;;;;;;;5072690;28;20493;-50
2021/03/04 02:58:37;;;;;;;93.87;48.17;;;;;;;;;;5072743;28;20411;-50
2021/03/04 03:01:03;;;;;;;87.97;45.33;;;;;;;;;;5072615;28;20932;-50
2021/03/04 03:03:30;;;;;;;89.10;47.27;;;;;;;;;;5072781;28;20463;-50
2021/03/04 03:05:58;;;;;;;85.10;45.67;;;;;;;;;;5072674;28;20403;-50
2021/03/04 03:08:24;;;;;;;81.83;44.97;;;;;;;;;;5072442;28;20395;-51
2021/03/04 03:10:51;;;;;;;80.30;44.77;;;;;;;;;;5090183;28;20428;-50
2021/03/04 03:13:18;;;;;;;81.57;45.30;;;;;;;;;;5092670;28;20422;-50
2021/03/04 03:15:44;;;;;;;84.90;43.50;;;;;;;;;;5092894;28;20454;-50
2021/03/04 03:18:11;;;;;;;76.63;44.80;;;;;;;;;;5092358;28;20400;-50
2021/03/04 03:20:37;;;;;;;82.00;44.43;;;;;;;;;;5092704;28;20436;-50
2021/03/04 03:23:03;;;;;;;85.07;46.97;;;;;;;;;;5084503;28;20465;-50
2021/03/04 03:25:29;;;;;;;78.37;45.87;;;;;;;;;;5072378;28;20887;-50
2021/03/04 03:27:56;;;;;;;83.63;46.67;;;;;;;;;;5071987;28;20498;-50
2021/03/04 03:30:26;;;;;;;83.97;44.93;;;;;;;;;;5071232;28;20890;-50
2021/03/04 03:33:05;;;;;;;89.30;46.07;;;;;;;;;;5072029;28;20489;-50
2021/03/04 03:35:32;;;;;;;85.80;47.10;;;;;;;;;;5072224;28;20921;-51
2021/03/04 03:37:59;;;;;;;97.80;49.70;;;;;;;;;;5072142;28;20434;-50
2021/03/04 03:40:26;;;;;;;97.07;51.30;;;;;;;;;;5071530;28;20867;-50
2021/03/04 03:42:55;;;;;;;92.63;47.07;;;;;;;;;;5072622;28;20468;-52
2021/03/04 03:45:25;;;;;;;87.33;50.90;;;;;;;;;;5072067;28;20993;-49
2021/03/04 03:47:51;;;;;;;93.40;52.00;;;;;;;;;;5071894;28;20887;-49
2021/03/04 03:50:18;;;;;;;96.43;51.10;;;;;;;;;;5071819;28;20409;-49
2021/03/04 03:52:45;;;;;;;94.17;50.30;;;;;;;;;;5071945;28;20540;-49
2021/03/04 03:55:12;;;;;;;95.97;49.07;;;;;;;;;;5071703;28;20417;-50
2021/03/04 03:57:39;;;;;;;90.60;48.33;;;;;;;;;;5071296;28;20417;-49
2021/03/04 04:00:05;;;;;;;101.13;52.13;;;;;;;;;;5071659;28;20910;-49
2021/03/04 04:02:32;;;;;;;106.10;54.77;;;;;;;;;;5071777;28;20462;-49
2021/03/04 04:04:58;;;;;;;98.83;50.43;;;;;;;;;;5071565;28;20789;-49
2021/03/04 04:07:24;;;;;;;93.00;52.10;;;;;;;;;;5071478;28;20458;-49
2021/03/04 04:09:51;;;;;;;98.53;52.50;;;;;;;;;;5071451;28;20934;-52
2021/03/04 04:12:17;;;;;;;91.20;52.50;;;;;;;;;;5071547;28;20761;-50
2021/03/04 04:14:43;;;;;;;100.13;53.30;;;;;;;;;;5071399;28;20423;-50
2021/03/04 04:17:09;;;;;;;100.27;53.40;;;;;;;;;;5071123;28;20474;-51
2021/03/04 04:19:36;;;;;;;97.80;52.17;;;;;;;;;;5071302;28;20497;-51
2021/03/04 04:22:02;;;;;;;91.27;53.57;;;;;;;;;;5071174;28;20449;-49
2021/03/04 04:24:28;;;;;;;90.90;49.50;;;;;;;;;;5071288;28;20426;-50
2021/03/04 04:26:54;;;;;;;88.63;52.00;;;;;;;;;;5070918;28;20410;-51
2021/03/04 04:29:20;;;;;;;99.60;49.83;;;;;;;;;;5071222;28;20402;-50
2021/03/04 04:31:46;;;;;;;92.77;47.63;;;;;;;;;;5071046;28;20395;-49
2021/03/04 04:34:12;;;;;;;97.87;51.70;;;;;;;;;;5070972;28;20957;-50
2021/03/04 04:36:38;;;;;;;98.97;50.40;;;;;;;;;;5070929;28;20795;-50
2021/03/04 04:39:04;;;;;;;98.23;50.70;;;;;;;;;;5070841;28;20457;-52
2021/03/04 04:41:30;;;;;;;100.57;53.73;;;;;;;;;;5070197;28;20823;-50
2021/03/04 04:43:56;;;;;;;103.13;52.67;;;;;;;;;;5070730;28;20428;-52
2021/03/04 04:46:22;;;;;;;85.03;48.60;;;;;;;;;;5070937;28;20914;-50
2021/03/04 04:48:48;;;;;;;86.40;49.77;;;;;;;;;;5070782;28;20458;-50
2021/03/04 04:51:14;;;;;;;97.03;50.43;;;;;;;;;;5070873;28;20409;-50
2021/03/04 04:53:40;;;;;;;90.67;50.40;;;;;;;;;;5069914;28;20416;-49
2021/03/04 04:56:07;;;;;;;97.90;50.60;;;;;;;;;;5071280;28;20420;-50
2021/03/04 04:58:33;;;;;;;99.25;51.13;;;;;;;;;;5070508;28;20432;-50
2021/03/04 05:00:59;;;;;;;92.85;53.05;;;;;;;;;;5070828;28;20162;-50
2021/03/04 05:03:25;;;;;;;93.87;50.50;;;;;;;;;;5070500;28;20197;-51
2021/03/04 05:05:51;;;;;;;100.53;49.90;;;;;;;;;;5070769;28;20400;-51
2021/03/04 05:08:17;;;;;;;92.28;50.10;;;;;;;;;;5070308;28;20435;-52
2021/03/04 05:10:43;;;;;;;95.00;48.23;;;;;;;;;;5069949;28;20211;-52
2021/03/04 05:13:09;;;;;;;87.63;48.78;;;;;;;;;;5070541;28;20436;-52
2021/03/04 05:15:35;;;;;;;101.05;51.10;;;;;;;;;;5070527;28;20716;-51
2021/03/04 05:18:01;;;;;;;94.18;50.55;;;;;;;;;;5070599;28;20760;-49
2021/03/04 05:20:27;;;;;;;90.20;49.95;;;;;;;;;;5070482;28;20542;-48
2021/03/04 05:22:53;;;;;;;101.33;49.83;;;;;;;;;;5070468;28;20193;-49
2021/03/04 05:25:19;;;;;;;102.47;53.17;;;;;;;;;;5070463;28;20803;-50
2021/03/04 05:27:45;;;;;;;88.73;47.97;;;;;;;;;;5070306;28;20493;-49
2021/03/04 05:30:11;;;;;;;98.00;50.93;;;;;;;;;;5070431;28;20739;-49
2021/03/04 05:32:37;;;;;;;102.63;49.85;;;;;;;;;;5070554;28;20896;-49
2021/03/04 05:35:04;;;;;;;88.57;50.63;;;;;;;;;;5070325;28;20277;-50
2021/03/04 05:37:30;;;;;;;94.07;50.23;;;;;;;;;;5070550;28;20433;-49
2021/03/04 05:39:56;;;;;;;98.70;52.07;;;;;;;;;;5070691;28;20432;-50
2021/03/04 05:42:22;;;;;;;115.40;55.10;;;;;;;;;;5070295;28;20471;-49
2021/03/04 05:44:48;;;;;;;102.00;56.53;;;;;;;;;;5070478;28;20431;-49
2021/03/04 05:47:14;;;;;;;109.55;52.65;;;;;;;;;;5070079;28;20415;-53
2021/03/04 05:49:54;;;;;;;104.90;54.43;;;;;;;;;;5070437;28;20633;-52
2021/03/04 05:52:20;;;;;;;100.85;53.95;;;;;;;;;;5070228;28;20402;-49
2021/03/04 05:54:46;;;;;;;99.30;49.13;;;;;;;;;;5072922;28;20196;-49
2021/03/04 05:57:13;;;;;;;105.75;52.10;;;;;;;;;;5073839;28;20167;-49
2021/03/04 05:59:39;;;;;;;99.00;50.88;;;;;;;;;;5074190;28;20162;-53
2021/03/04 06:02:05;;;;;;;101.07;51.22;;;;;;;;;;5074035;28;20288;-51
2021/03/04 06:04:31;;;;;;;91.60;49.63;;;;;;;;;;5074109;28;20201;-50
2021/03/04 06:06:57;;;;;;;98.17;49.80;;;;;;;;;;5073527;28;20172;-52
2021/03/04 06:09:23;;;;;;;95.80;49.47;;;;;;;;;;5073862;28;20397;-52
2021/03/04 06:11:49;;;;;;;94.13;49.23;;;;;;;;;;5073254;28;20396;-50
2021/03/04 06:14:15;;;;;;;101.60;52.07;;;;;;;;;;5073785;28;20513;-50
2021/03/04 06:16:41;;;;;;;109.90;51.13;;;;;;;;;;5073801;28;20408;-50
2021/03/04 06:19:18;;;;;;;101.63;48.47;;;;;;;;;;5073485;28;20202;-50
2021/03/04 06:21:44;;;;;;;113.88;52.72;;;;;;;;;;5073527;28;20483;-50
2021/03/04 06:24:13;;;;;;;106.83;50.50;;;;;;;;;;5073451;28;20221;-50
2021/03/04 06:26:39;;;;;;;103.03;52.10;;;;;;;;;;5073521;28;20400;-50
2021/03/04 06:29:16;;;;;;;103.90;49.10;;;;;;;;;;5073268;28;20178;-50
2021/03/04 06:31:42;;;;;;;106.38;50.03;;;;;;;;;;5073547;28;20404;-50
2021/03/04 06:34:15;;;;;;;113.22;51.22;;;;;;;;;;5073109;28;20769;-49
2021/03/04 06:36:51;;;;;;;116.75;52.65;;;;;;;;;;5073575;28;20202;-50
2021/03/04 06:39:17;;;;;;;123.13;51.97;;;;;;;;;;5073211;28;20165;-50
2021/03/04 06:41:43;;;;;;;115.20;53.83;;;;;;;;;;5080214;28;20725;-50
2021/03/04 06:44:09;;;;;;;117.67;51.60;;;;;;;;;;5092294;28;20439;-50
2021/03/04 06:46:45;;;;;;;117.65;51.88;;;;;;;;;;5093428;28;20391;-50
2021/03/04 06:49:11;;;;;;;119.07;54.80;;;;;;;;;;5093577;28;20564;-50
2021/03/04 06:51:43;;;;;;;123.83;54.73;;;;;;;;;;5093477;28;20168;-51
2021/03/04 06:54:09;;;;;;;127.90;55.58;;;;;;;;;;5093203;28;20451;-49
2021/03/04 06:56:35;;;;;;;115.60;52.33;;;;;;;;;;5093163;28;20182;-50
2021/03/04 06:59:02;;;;;;;124.13;54.37;;;;;;;;;;5092447;28;20166;-51
2021/03/04 07:01:29;;;;;;;126.00;52.25;;;;;;;;;;5092713;28;20438;-49
2021/03/04 07:03:55;;;;;;;122.50;52.00;;;;;;;;;;5093284;28;20186;-49
2021/03/04 07:06:25;;;;;;;122.40;51.90;;;;;;;;;;5092587;28;20193;-49
2021/03/04 07:08:52;;;;;;;116.43;51.77;;;;;;;;;;5092858;28;20388;-50
2021/03/04 07:11:19;;;;;;;122.07;51.00;;;;;;;;;;5090292;28;20398;-50
2021/03/04 07:13:45;;;;;;;113.78;49.83;;;;;;;;;;5072759;28;20198;-51
2021/03/04 07:16:18;;;;;;;110.28;52.15;;;;;;;;;;5072773;28;20170;-49
2021/03/04 07:18:46;;;;;;;106.75;49.75;;;;;;;;;;5072471;28;20200;-50
2021/03/04 07:21:13;;;;;;;108.40;47.58;;;;;;;;;;5072697;28;20169;-49
2021/03/04 07:23:40;;;;;;;122.85;53.50;;;;;;;;;;5072483;28;20653;-49
2021/03/04 07:26:06;;;;;;;114.32;49.72;;;;;;;;;;5072484;28;20633;-49
2021/03/04 07:28:33;;;;;;;121.00;49.13;;;;;;;;;;5072216;28;20666;-49
2021/03/04 07:30:59;;;;;;;110.63;48.20;;;;;;;;;;5072610;28;20174;-50
2021/03/04 07:33:27;;;;;;;112.72;52.38;;;;;;;;;;5072123;28;20194;-49
2021/03/04 07:35:54;;;;;;;125.25;50.75;;;;;;;;;;5072352;28;20665;-49
2021/03/04 07:38:27;;;;;;;121.25;53.38;;;;;;;;;;5071915;28;20375;-49
2021/03/04 07:40:59;;;;;;;124.90;55.63;;;;;;;;;;5072113;28;20201;-52
2021/03/04 07:43:25;;;;;;;130.40;53.83;;;;;;;;;;5071061;28;20240;-50
2021/03/04 07:45:51;;;;;;;118.67;51.93;;;;;;;;;;5072222;28;20198;-50
2021/03/04 07:48:18;;;;;;;135.83;52.97;;;;;;;;;;5071714;28;20500;-50
2021/03/04 07:50:54;;;;;;;121.88;53.83;;;;;;;;;;5072163;28;20408;-49
2021/03/04 07:53:20;;;;;;;125.63;51.63;;;;;;;;;;5071961;28;20194;-49
2021/03/04 07:55:46;;;;;;;122.60;53.15;;;;;;;;;;5072039;28;20720;-49
2021/03/04 07:58:14;;;;;;;126.25;54.33;;;;;;;;;;5071753;28;20523;-50
2021/03/04 08:00:40;;;;;;;122.18;54.95;;;;;;;;;;5071836;28;20167;-51
2021/03/04 08:03:06;;;;;;;130.10;52.13;;;;;;;;;;5071739;28;20209;-50
2021/03/04 08:05:33;;;;;;;132.07;54.40;;;;;;;;;;5071560;28;20181;-50
2021/03/04 08:08:09;;;;;;;132.52;54.03;;;;;;;;;;5071320;28;20189;-49
2021/03/04 08:10:42;;;;;;;128.23;54.72;;;;;;;;;;5071561;28;20178;-49
2021/03/04 08:13:08;;;;;;;126.15;51.47;;;;;;;;;;5071830;28;20201;-51
2021/03/04 08:15:35;;;;;;;131.68;53.55;;;;;;;;;;5071464;28;20257;-52
2021/03/04 08:18:02;;;;;;;126.50;52.90;;;;;;;;;;5070723;28;20173;-50
2021/03/04 08:20:28;;;;;;;137.25;54.05;;;;;;;;;;5071239;28;20255;-53
2021/03/04 08:22:56;;;;;;;130.43;54.77;;;;;;;;;;5071291;28;20223;-50
2021/03/04 08:25:26;;;;;;;126.28;55.15;;;;;;;;;;5071391;28;20402;-50
2021/03/04 08:27:56;;;;;;;115.30;52.70;;;;;;;;;;5071114;28;20170;-50
2021/03/04 08:30:37;;;;;;;99.13;47.80;;;;;;;;;;5071136;28;20623;-52
2021/03/04 08:33:04;;;;;;;118.05;51.17;;;;;;;;;;5070958;28;20182;-49
2021/03/04 08:35:34;;;;;;;109.25;49.72;;;;;;;;;;5071091;28;20186;-50
2021/03/04 08:38:03;;;;;;;112.15;48.65;;;;;;;;;;5070876;28;20185;-50
2021/03/04 08:40:37;;;;;;;105.50;47.22;;;;;;;;;;5071180;28;20166;-49
2021/03/04 08:43:08;;;;;;;97.25;46.92;;;;;;;;;;5070251;28;20201;-50
2021/03/04 08:45:34;;;;;;;83.03;42.63;;;;;;;;;;5070957;28;20223;-52
2021/03/04 08:48:03;;;;;;;86.80;44.90;;;;;;;;;;5070558;28;20224;-51
2021/03/04 08:50:40;;;;;;;97.38;44.00;;;;;;;;;;5070866;28;20212;-49
2021/03/04 08:53:10;;;;;;;106.35;47.65;;;;;;;;;;5070864;28;20198;-50
2021/03/04 08:55:43;;;;;;;97.82;47.90;;;;;;;;;;5071049;28;20589;-49
2021/03/04 08:58:09;;;;;;;111.18;48.47;;;;;;;;;;5070812;28;20264;-50
2021/03/04 09:00:35;;;;;;;122.03;49.83;;;;;;;;;;5070967;28;20611;-51
2021/03/04 09:03:11;;;;;;;89.03;41.30;;;;;;;;;;5083352;28;20471;-49
2021/03/04 09:05:38;;;;;;;88.20;40.72;;;;;;;;;;5089031;28;20415;-48
2021/03/04 09:08:11;;;;;;;91.43;41.50;;;;;;;;;;5075260;28;20252;-50
2021/03/04 09:10:48;;;;;;;71.57;36.55;;;;;;;;;;5070873;28;20170;-50
2021/03/04 09:13:27;;;;;;;89.68;39.65;;;;;;;;;;5070754;28;20560;-50
2021/03/04 09:15:55;;;;;;;72.78;35.67;;;;;;;;;;5090619;28;20224;-49
2021/03/04 09:18:22;;;;;;;72.47;35.58;;;;;;;;;;5090688;28;20274;-51
2021/03/04 09:20:57;;;;;;;74.80;34.75;;;;;;;;;;5090568;28;20165;-50
2021/03/04 09:23:23;;;;;;;64.70;30.88;;;;;;;;;;5090654;28;20609;-50
2021/03/04 09:25:54;;;;;;;62.47;30.15;;;;;;;;;;5089303;28;20184;-50
2021/03/04 09:28:20;;;;;;;43.95;25.92;;;;;;;;;;5090968;28;20177;-51
2021/03/04 09:30:47;;;;;;;46.85;25.95;;;;;;;;;;5094659;28;20161;-50
2021/03/04 09:33:23;;;;;;;49.50;25.77;;;;;;;;;;5094806;28;20247;-50
2021/03/04 09:35:59;;;;;;;41.95;23.42;;;;;;;;;;5086162;28;20267;-50
2021/03/04 09:38:30;;;;;;;42.13;23.70;;;;;;;;;;5080016;28;20212;-50
2021/03/04 09:41:07;;;;;;;42.63;23.55;;;;;;;;;;5082368;28;20178;-51
2021/03/04 09:43:54;;;;;;;48.45;25.63;;;;;;;;;;5082939;28;20213;-51
2021/03/04 09:46:38;;;;;;;44.60;24.73;;;;;;;;;;5087128;28;20526;-51
2021/03/04 09:49:15;;;;;;;51.05;26.00;;;;;;;;;;5101430;28;20162;-50
2021/03/04 09:51:45;;;;;;;49.90;27.63;;;;;;;;;;5101691;28;20176;-50
2021/03/04 09:54:12;;;;;;;49.88;26.77;;;;;;;;;;5102049;28;20661;-49
2021/03/04 09:56:41;;;;;;;47.95;26.77;;;;;;;;;;5099661;28;20169;-50
2021/03/04 09:59:16;;;;;;;49.40;27.40;;;;;;;;;;5090460;28;20177;-51
2021/03/04 10:01:43;;;;;;;44.65;24.35;;;;;;;;;;5099384;28;20435;-51
2021/03/04 10:04:09;;;;;;;39.05;23.30;;;;;;;;;;5095931;28;20186;-52
2021/03/04 10:06:36;;;;;;;47.53;22.05;;;;;;;;;;5093101;28;20178;-51
2021/03/04 10:09:02;;;;;;;45.42;24.38;;;;;;;;;;5093904;28;20172;-50
2021/03/04 10:11:31;;;;;;;36.13;20.88;;;;;;;;;;5094046;28;20193;-50
2021/03/04 10:14:06;;;;;;;29.83;18.30;;;;;;;;;;5093862;28;20197;-49
2021/03/04 10:16:32;;;;;;;28.48;16.77;;;;;;;;;;5094011;28;20165;-49
2021/03/04 10:19:00;;;;;;;26.07;16.10;;;;;;;;;;5093777;28;20186;-50
2021/03/04 10:21:26;;;;;;;25.58;17.92;;;;;;;;;;5093731;28;20396;-51
2021/03/04 10:23:52;;;;;;;27.27;16.50;;;;;;;;;;5093831;28;20190;-50
2021/03/04 10:26:18;;;;;;;28.00;16.20;;;;;;;;;;5093719;28;20399;-52
2021/03/04 10:28:44;;;;;;;28.40;16.70;;;;;;;;;;5087788;28;20424;-50
2021/03/04 10:31:10;;;;;;;25.90;16.48;;;;;;;;;;5075824;28;20431;-51
2021/03/04 10:33:36;;;;;;;22.57;14.77;;;;;;;;;;5073385;28;20194;-50
2021/03/04 10:36:02;;;;;;;23.77;16.07;;;;;;;;;;5079842;28;20419;-50
2021/03/04 10:38:28;;;;;;;20.15;14.95;;;;;;;;;;5093402;28;20416;-50
2021/03/04 10:40:54;;;;;;;20.87;13.90;;;;;;;;;;5093111;28;20251;-50
2021/03/04 10:43:20;;;;;;;22.00;14.70;;;;;;;;;;5093358;28;20456;-52
2021/03/04 10:45:46;;;;;;;21.50;15.03;;;;;;;;;;5093592;28;20400;-50
2021/03/04 10:48:13;;;;;;;20.50;13.97;;;;;;;;;;5093140;28;20410;-50
2021/03/04 10:50:39;;;;;;;18.37;11.83;;;;;;;;;;5093443;28;21079;-52
2021/03/04 10:53:05;;;;;;;15.23;10.82;;;;;;;;;;5093224;28;20973;-52
2021/03/04 10:55:31;;;;;;;14.73;10.60;;;;;;;;;;5093442;28;20169;-50
2021/03/04 10:57:57;;;;;;;8.85;7.40;;;;;;;;;;5093266;28;20177;-50
2021/03/04 11:00:23;;;;;;;7.50;6.03;;;;;;;;;;5073814;28;20228;-49
2021/03/04 11:02:50;;;;;;;8.90;6.53;;;;;;;;;;5073158;28;20190;-50
2021/03/04 11:05:16;;;;;;;8.30;6.47;;;;;;;;;;5072945;28;20532;-50
2021/03/04 11:07:42;;;;;;;7.33;6.53;;;;;;;;;;5072786;28;20163;-50
2021/03/04 11:10:10;;;;;;;8.43;7.00;;;;;;;;;;5072728;28;20487;-50
2021/03/04 11:12:36;;;;;;;7.20;5.18;;;;;;;;;;5072894;28;20433;-50
2021/03/04 11:15:02;;;;;;;5.90;5.40;;;;;;;;;;5072465;28;20187;-50
2021/03/04 11:17:28;;;;;;;8.10;5.50;;;;;;;;;;5072306;28;20466;-50
2021/03/04 11:19:54;;;;;;;7.97;5.37;;;;;;;;;;5072795;28;20633;-51
2021/03/04 11:22:20;;;;;;;6.10;5.50;;;;;;;;;;5072413;28;20447;-50
2021/03/04 11:24:47;;;;;;;8.83;5.70;;;;;;;;;;5072458;28;20416;-51
2021/03/04 11:27:13;;;;;;;5.28;4.78;;;;;;;;;;5074073;28;20410;-50
2021/03/04 11:29:39;;;;;;;6.68;5.35;;;;;;;;;;5083879;28;20193;-50
2021/03/04 11:32:05;;;;;;;5.00;4.00;;;;;;;;;;5071758;28;20171;-50
2021/03/04 11:34:31;;;;;;;4.88;4.40;;;;;;;;;;5072297;28;20198;-52
2021/03/04 11:36:57;;;;;;;3.73;3.43;;;;;;;;;;5071792;28;20265;-50
2021/03/04 11:39:24;;;;;;;4.50;3.70;;;;;;;;;;5072149;28;20401;-50
2021/03/04 11:41:50;;;;;;;5.80;4.63;;;;;;;;;;5072057;28;21027;-51
2021/03/04 11:44:15;;;;;;;4.40;4.00;;;;;;;;;;5071880;28;20260;-51
2021/03/04 11:46:42;;;;;;;4.90;4.50;;;;;;;;;;5072288;28;20920;-49
2021/03/04 11:49:08;;;;;;;5.22;3.33;;;;;;;;;;5071674;28;20396;-51
2021/03/04 11:51:34;;;;;;;3.00;2.80;;;;;;;;;;5071375;28;20594;-49
2021/03/04 11:54:00;;;;;;;3.27;3.00;;;;;;;;;;5071841;28;20277;-49
2021/03/04 11:56:26;;;;;;;3.42;3.10;;;;;;;;;;5071691;28;20408;-50
2021/03/04 11:58:52;;;;;;;2.87;2.63;;;;;;;;;;5070425;28;20168;-50
2021/03/04 12:01:18;;;;;;;3.60;3.30;;;;;;;;;;5071126;28;20456;-50
2021/03/04 12:03:44;;;;;;;4.00;3.60;;;;;;;;;;5071508;28;20463;-49
2021/03/04 12:06:10;;;;;;;3.53;3.23;;;;;;;;;;5071399;28;20406;-50
2021/03/04 12:08:36;;;;;;;4.63;4.10;;;;;;;;;;5071456;28;20394;-52
2021/03/04 12:11:02;;;;;;;4.80;4.07;;;;;;;;;;5071449;28;20402;-53
2021/03/04 12:13:34;;;;;;;3.97;3.60;;;;;;;;;;5071467;28;20422;-49
2021/03/04 12:16:02;;;;;;;6.60;4.63;;;;;;;;;;5071419;28;20891;-49
2021/03/04 12:18:28;;;;;;;6.10;4.53;;;;;;;;;;5071064;28;20436;-49
2021/03/04 12:20:54;;;;;;;5.83;4.90;;;;;;;;;;5071419;28;20172;-49
2021/03/04 12:23:20;;;;;;;7.30;5.00;;;;;;;;;;5071052;28;20460;-49
2021/03/04 12:25:46;;;;;;;7.37;5.47;;;;;;;;;;5071336;28;20426;-51
2021/03/04 12:28:12;;;;;;;6.97;5.50;;;;;;;;;;5070720;28;20398;-50
2021/03/04 12:30:38;;;;;;;6.97;4.67;;;;;;;;;;5070873;28;20429;-50
2021/03/04 12:33:04;;;;;;;10.10;5.57;;;;;;;;;;5070800;28;20469;-49
2021/03/04 12:35:30;;;;;;;9.33;7.13;;;;;;;;;;5070965;28;20478;-49
2021/03/04 12:37:56;;;;;;;10.27;6.20;;;;;;;;;;5070885;28;20881;-49
2021/03/04 12:40:22;;;;;;;8.63;6.00;;;;;;;;;;5070941;28;20390;-51
2021/03/04 12:42:48;;;;;;;9.03;6.63;;;;;;;;;;5070776;28;20593;-51
2021/03/04 12:45:14;;;;;;;8.83;6.90;;;;;;;;;;5070672;28;20475;-51
2021/03/04 12:47:40;;;;;;;9.52;7.55;;;;;;;;;;5070716;28;20948;-50
2021/03/04 12:50:06;;;;;;;9.33;6.77;;;;;;;;;;5070953;28;20215;-51
2021/03/04 12:52:33;;;;;;;11.33;7.10;;;;;;;;;;5070991;28;20446;-50
2021/03/04 12:54:59;;;;;;;10.60;6.70;;;;;;;;;;5070861;28;20435;-49
2021/03/04 12:57:25;;;;;;;11.60;7.75;;;;;;;;;;5070598;28;20401;-49
2021/03/04 12:59:51;;;;;;;11.30;7.73;;;;;;;;;;5071082;28;20499;-50
2021/03/04 13:02:17;;;;;;;13.15;8.60;;;;;;;;;;5070114;28;20482;-49
2021/03/04 13:04:44;;;;;;;16.27;9.27;;;;;;;;;;5091002;28;20202;-49
2021/03/04 13:07:10;;;;;;;11.07;8.20;;;;;;;;;;5090717;28;20539;-49
2021/03/04 13:09:36;;;;;;;15.48;8.85;;;;;;;;;;5091110;28;20236;-49
2021/03/04 13:12:02;;;;;;;14.88;8.38;;;;;;;;;;5090861;28;20169;-49
2021/03/04 13:14:28;;;;;;;13.50;7.93;;;;;;;;;;5090673;28;20853;-49
2021/03/04 13:16:54;;;;;;;18.77;10.63;;;;;;;;;;5090757;28;20173;-50
2021/03/04 13:19:20;;;;;;;21.57;9.60;;;;;;;;;;5090782;28;20749;-49
2021/03/04 13:21:46;;;;;;;18.58;10.10;;;;;;;;;;5090831;28;20451;-49
2021/03/04 13:24:12;;;;;;;26.60;13.33;;;;;;;;;;5090643;28;20656;-49
2021/03/04 13:26:38;;;;;;;24.63;12.70;;;;;;;;;;5090583;28;20423;-49
2021/03/04 13:29:04;;;;;;;30.50;12.87;;;;;;;;;;5090359;28;20952;-49
2021/03/04 13:31:30;;;;;;;37.08;12.15;;;;;;;;;;5089177;28;20424;-49
2021/03/04 13:33:56;;;;;;;25.70;13.60;;;;;;;;;;5089580;28;20603;-49
2021/03/04 13:36:22;;;;;;;33.22;14.10;;;;;;;;;;5093354;28;20387;-49
2021/03/04 13:38:48;;;;;;;27.57;12.47;;;;;;;;;;5090434;28;20704;-50
2021/03/04 13:41:14;;;;;;;27.80;12.00;;;;;;;;;;5090244;28;20395;-51
2021/03/04 13:43:42;;;;;;;23.67;11.80;;;;;;;;;;5090477;28;20462;-52
2021/03/04 13:46:08;;;;;;;28.25;11.00;;;;;;;;;;5090530;28;20635;-49
2021/03/04 13:48:34;;;;;;;24.80;12.93;;;;;;;;;;5090276;28;20667;-50
2021/03/04 13:51:00;;;;;;;32.00;12.50;;;;;;;;;;5091068;28;20395;-51
2021/03/04 13:53:26;;;;;;;29.60;13.10;;;;;;;;;;5090271;28;20423;-51
2021/03/04 13:55:52;;;;;;;33.33;14.90;;;;;;;;;;5090295;28;20414;-50
2021/03/04 13:58:18;;;;;;;33.88;14.13;;;;;;;;;;5090221;28;20483;-50
2021/03/04 14:00:44;;;;;;;32.00;12.85;;;;;;;;;;5082407;28;20185;-51
2021/03/04 14:03:10;;;;;;;33.50;16.47;;;;;;;;;;5069930;28;20197;-50
2021/03/04 14:05:37;;;;;;;40.93;15.57;;;;;;;;;;5070135;28;20399;-50
2021/03/04 14:08:03;;;;;;;36.90;15.77;;;;;;;;;;5069793;28;20885;-50
2021/03/04 14:10:29;;;;;;;39.40;16.37;;;;;;;;;;5069864;28;20281;-50
2021/03/04 14:12:55;;;;;;;45.20;16.80;;;;;;;;;;5070061;28;20408;-50
2021/03/04 14:15:21;;;;;;;50.67;18.85;;;;;;;;;;5071762;28;20553;-51
2021/03/04 14:17:47;;;;;;;44.37;18.17;;;;;;;;;;5073525;28;20256;-50
2021/03/04 14:20:14;;;;;;;52.23;19.03;;;;;;;;;;5073727;28;20408;-51